QLK1498 YBDG-YSSY
Flight info
| Callsign | QLK1498 |
|---|---|
| Flight time | 1h 16m |
| Altitude | 19000 |
| Route | SHT W424 AY W817 AKMIR W113 ODALE |
| Aircraft | DH8D/M-SDE2E3FGRY/H |
Departure
| Time | 2026-05-05 09:03 |
|---|---|
| Airport | Bendigo Airport (YBDG) |
Arrival
| Time | 2026-05-05 10:19 |
|---|---|
| Airport | Sydney Kingsford Smith International Airport (YSSY) |
| Time | Latitude | Longitude | Altitude | Speed | Heading |
|---|---|---|---|---|---|
| 2026-05-05 08:37 | -36.73900 | 144.32680 | 697 ft | 0 kts | 320° |
| 2026-05-05 08:57 | -36.73894 | 144.32675 | 697 ft | 2 kts | 346° |
| 2026-05-05 08:57 | -36.73866 | 144.32715 | 695 ft | 11 kts | 73° |
| 2026-05-05 08:57 | -36.73853 | 144.32747 | 695 ft | 2 kts | 34° |
| 2026-05-05 08:58 | -36.73809 | 144.32754 | 695 ft | 0 kts | 0° |
| 2026-05-05 08:58 | -36.73794 | 144.32756 | 695 ft | 7 kts | 9° |
| 2026-05-05 08:58 | -36.73741 | 144.32761 | 694 ft | 4 kts | 25° |
| 2026-05-05 08:59 | -36.73729 | 144.32842 | 696 ft | 10 kts | 94° |
| 2026-05-05 08:59 | -36.73732 | 144.32909 | 698 ft | 0 kts | 93° |
| 2026-05-05 09:00 | -36.73735 | 144.32945 | 700 ft | 9 kts | 101° |
| 2026-05-05 09:00 | -36.73745 | 144.32964 | 700 ft | 0 kts | 189° |
| 2026-05-05 09:00 | -36.73763 | 144.32968 | 701 ft | 7 kts | 150° |
| 2026-05-05 09:01 | -36.73856 | 144.33005 | 703 ft | 25 kts | 180° |
| 2026-05-05 09:01 | -36.74068 | 144.32997 | 711 ft | 23 kts | 181° |
| 2026-05-05 09:01 | -36.74231 | 144.33008 | 719 ft | 22 kts | 153° |
| 2026-05-05 09:01 | -36.74240 | 144.32991 | 719 ft | 5 kts | 0° |
| 2026-05-05 09:02 | -36.74238 | 144.32991 | 719 ft | 0 kts | 0° |
| 2026-05-05 09:02 | -36.74236 | 144.32991 | 719 ft | 0 kts | 1° |
| 2026-05-05 09:02 | -36.74221 | 144.32991 | 719 ft | 16 kts | 1° |
| 2026-05-05 09:03 | -36.73631 | 144.33015 | 717 ft | 150 kts | 4° |
| 2026-05-05 09:03 | -36.72455 | 144.33102 | 1473 ft | 180 kts | 4° |
| 2026-05-05 09:03 | -36.71189 | 144.33586 | 1867 ft | 222 kts | 35° |
| 2026-05-05 09:03 | -36.70358 | 144.35281 | 2227 ft | 232 kts | 80° |
| 2026-05-05 09:04 | -36.70385 | 144.37172 | 2740 ft | 209 kts | 96° |
| 2026-05-05 09:04 | -36.70454 | 144.38910 | 3276 ft | 190 kts | 91° |
| 2026-05-05 09:04 | -36.70438 | 144.40451 | 3795 ft | 170 kts | 89° |
| 2026-05-05 09:04 | -36.70368 | 144.41879 | 4350 ft | 178 kts | 87° |
| 2026-05-05 09:05 | -36.70219 | 144.43520 | 5002 ft | 210 kts | 82° |
| 2026-05-05 09:05 | -36.69908 | 144.45409 | 5645 ft | 238 kts | 78° |
| 2026-05-05 09:05 | -36.69465 | 144.47492 | 6267 ft | 260 kts | 75° |
| 2026-05-05 09:05 | -36.68926 | 144.49733 | 6876 ft | 277 kts | 74° |
| 2026-05-05 09:06 | -36.68328 | 144.52065 | 7470 ft | 288 kts | 73° |
| 2026-05-05 09:06 | -36.67699 | 144.54416 | 8039 ft | 284 kts | 72° |
| 2026-05-05 09:06 | -36.67078 | 144.56673 | 8585 ft | 275 kts | 72° |
| 2026-05-05 09:06 | -36.66459 | 144.58897 | 9143 ft | 268 kts | 72° |
| 2026-05-05 09:07 | -36.65855 | 144.61046 | 9696 ft | 262 kts | 72° |
| 2026-05-05 09:07 | -36.65255 | 144.63164 | 10252 ft | 258 kts | 72° |
| 2026-05-05 09:07 | -36.64656 | 144.65266 | 10818 ft | 254 kts | 71° |
| 2026-05-05 09:07 | -36.64072 | 144.67313 | 11371 ft | 250 kts | 71° |
| 2026-05-05 09:08 | -36.63494 | 144.69325 | 11928 ft | 248 kts | 71° |
| 2026-05-05 09:08 | -36.62916 | 144.71335 | 12484 ft | 245 kts | 71° |
| 2026-05-05 09:08 | -36.62343 | 144.73320 | 13038 ft | 244 kts | 71° |
| 2026-05-05 09:08 | -36.61773 | 144.75291 | 13594 ft | 243 kts | 71° |
| 2026-05-05 09:09 | -36.61198 | 144.77277 | 14161 ft | 242 kts | 71° |
| 2026-05-05 09:09 | -36.60630 | 144.79236 | 14721 ft | 242 kts | 71° |
| 2026-05-05 09:09 | -36.60062 | 144.81194 | 15284 ft | 242 kts | 71° |
| 2026-05-05 09:09 | -36.59496 | 144.83141 | 15844 ft | 243 kts | 71° |
| 2026-05-05 09:10 | -36.58924 | 144.85107 | 16409 ft | 243 kts | 71° |
| 2026-05-05 09:10 | -36.58354 | 144.87065 | 16970 ft | 243 kts | 71° |
| 2026-05-05 09:10 | -36.57780 | 144.89032 | 17534 ft | 243 kts | 71° |
| 2026-05-05 09:10 | -36.57211 | 144.90985 | 18097 ft | 242 kts | 71° |
| 2026-05-05 09:11 | -36.56636 | 144.92953 | 18654 ft | 243 kts | 72° |
| 2026-05-05 09:11 | -36.56041 | 144.94994 | 18905 ft | 265 kts | 72° |
| 2026-05-05 09:11 | -36.55378 | 144.97276 | 18991 ft | 290 kts | 71° |
| 2026-05-05 09:11 | -36.54665 | 144.99718 | 19011 ft | 311 kts | 71° |
| 2026-05-05 09:12 | -36.53902 | 145.02322 | 19017 ft | 329 kts | 71° |
| 2026-05-05 09:12 | -36.53109 | 145.05023 | 19012 ft | 341 kts | 71° |
| 2026-05-05 09:12 | -36.52281 | 145.07840 | 19011 ft | 351 kts | 71° |
| 2026-05-05 09:12 | -36.51425 | 145.10745 | 19002 ft | 359 kts | 71° |
| 2026-05-05 09:13 | -36.50563 | 145.13666 | 19006 ft | 364 kts | 71° |
| 2026-05-05 09:13 | -36.49688 | 145.16634 | 19003 ft | 367 kts | 71° |
| 2026-05-05 09:13 | -36.48801 | 145.19635 | 19000 ft | 369 kts | 71° |
| 2026-05-05 09:13 | -36.47915 | 145.22633 | 18999 ft | 371 kts | 71° |
| 2026-05-05 09:14 | -36.47026 | 145.25636 | 18997 ft | 372 kts | 71° |
| 2026-05-05 09:14 | -36.46131 | 145.28657 | 18998 ft | 372 kts | 71° |
| 2026-05-05 09:14 | -36.45230 | 145.31696 | 18997 ft | 373 kts | 71° |
| 2026-05-05 09:14 | -36.44337 | 145.34705 | 18994 ft | 373 kts | 71° |
| 2026-05-05 09:15 | -36.43433 | 145.37749 | 18995 ft | 373 kts | 71° |
| 2026-05-05 09:15 | -36.42548 | 145.40776 | 18983 ft | 373 kts | 73° |
| 2026-05-05 09:15 | -36.41837 | 145.43819 | 19117 ft | 369 kts | 77° |
| 2026-05-05 09:15 | -36.41175 | 145.46909 | 19166 ft | 367 kts | 77° |
| 2026-05-05 09:16 | -36.40517 | 145.49951 | 19175 ft | 369 kts | 77° |
| 2026-05-05 09:16 | -36.39848 | 145.53026 | 19184 ft | 370 kts | 77° |
| 2026-05-05 09:16 | -36.39173 | 145.56097 | 19194 ft | 371 kts | 76° |
| 2026-05-05 09:16 | -36.38490 | 145.59190 | 19199 ft | 372 kts | 76° |
| 2026-05-05 09:17 | -36.37809 | 145.62260 | 19193 ft | 372 kts | 76° |
| 2026-05-05 09:17 | -36.37115 | 145.65373 | 19192 ft | 373 kts | 76° |
| 2026-05-05 09:17 | -36.36427 | 145.68451 | 19192 ft | 370 kts | 76° |
| 2026-05-05 09:17 | -36.35738 | 145.71524 | 19189 ft | 371 kts | 76° |
| 2026-05-05 09:18 | -36.35052 | 145.74580 | 19193 ft | 370 kts | 76° |
| 2026-05-05 09:18 | -36.34359 | 145.77663 | 19194 ft | 371 kts | 76° |
| 2026-05-05 09:18 | -36.33660 | 145.80763 | 19194 ft | 371 kts | 76° |
| 2026-05-05 09:18 | -36.32961 | 145.83858 | 19190 ft | 370 kts | 76° |
| 2026-05-05 09:19 | -36.32263 | 145.86940 | 19186 ft | 370 kts | 76° |
| 2026-05-05 09:19 | -36.31570 | 145.90001 | 19184 ft | 371 kts | 76° |
| 2026-05-05 09:19 | -36.30862 | 145.93120 | 19190 ft | 372 kts | 76° |
| 2026-05-05 09:19 | -36.30166 | 145.96184 | 19194 ft | 373 kts | 76° |
| 2026-05-05 09:20 | -36.29458 | 145.99297 | 19188 ft | 374 kts | 76° |
| 2026-05-05 09:20 | -36.28745 | 146.02426 | 19181 ft | 374 kts | 76° |
| 2026-05-05 09:20 | -36.28041 | 146.05518 | 19183 ft | 374 kts | 76° |
| 2026-05-05 09:20 | -36.27333 | 146.08617 | 19187 ft | 374 kts | 76° |
| 2026-05-05 09:21 | -36.26619 | 146.11737 | 19185 ft | 374 kts | 76° |
| 2026-05-05 09:21 | -36.25915 | 146.14810 | 19184 ft | 374 kts | 76° |
| 2026-05-05 09:21 | -36.25205 | 146.17909 | 19184 ft | 374 kts | 76° |
| 2026-05-05 09:21 | -36.24496 | 146.20998 | 19185 ft | 374 kts | 76° |
| 2026-05-05 09:22 | -36.23773 | 146.24142 | 19185 ft | 374 kts | 76° |
| 2026-05-05 09:22 | -36.23061 | 146.27237 | 19185 ft | 374 kts | 76° |
| 2026-05-05 09:22 | -36.22344 | 146.30344 | 19182 ft | 375 kts | 76° |
| 2026-05-05 09:22 | -36.21632 | 146.33426 | 19183 ft | 375 kts | 76° |
| 2026-05-05 09:23 | -36.20912 | 146.36545 | 19181 ft | 375 kts | 76° |
| 2026-05-05 09:23 | -36.20197 | 146.39632 | 19179 ft | 375 kts | 76° |
| 2026-05-05 09:23 | -36.19473 | 146.42757 | 19181 ft | 375 kts | 76° |
| 2026-05-05 09:23 | -36.18756 | 146.45845 | 19182 ft | 375 kts | 76° |
| 2026-05-05 09:24 | -36.18035 | 146.48949 | 19180 ft | 375 kts | 76° |
| 2026-05-05 09:24 | -36.17312 | 146.52057 | 19175 ft | 374 kts | 76° |
| 2026-05-05 09:24 | -36.16591 | 146.55153 | 19176 ft | 374 kts | 76° |
| 2026-05-05 09:24 | -36.15873 | 146.58231 | 19179 ft | 374 kts | 76° |
| 2026-05-05 09:25 | -36.15149 | 146.61328 | 19180 ft | 374 kts | 76° |
| 2026-05-05 09:25 | -36.14424 | 146.64430 | 19180 ft | 374 kts | 76° |
| 2026-05-05 09:25 | -36.13701 | 146.67519 | 19179 ft | 374 kts | 75° |
| 2026-05-05 09:25 | -36.12976 | 146.70613 | 19175 ft | 374 kts | 75° |
| 2026-05-05 09:26 | -36.12250 | 146.73703 | 19174 ft | 374 kts | 76° |
| 2026-05-05 09:26 | -36.11527 | 146.76779 | 19177 ft | 374 kts | 76° |
| 2026-05-05 09:26 | -36.10799 | 146.79880 | 19178 ft | 373 kts | 76° |
| 2026-05-05 09:26 | -36.10074 | 146.82951 | 19176 ft | 373 kts | 75° |
| 2026-05-05 09:27 | -36.09343 | 146.86050 | 19179 ft | 374 kts | 76° |
| 2026-05-05 09:27 | -36.08613 | 146.89140 | 19174 ft | 375 kts | 76° |
| 2026-05-05 09:27 | -36.07877 | 146.92253 | 19178 ft | 374 kts | 76° |
| 2026-05-05 09:27 | -36.07137 | 146.95329 | 19179 ft | 374 kts | 75° |
| 2026-05-05 09:28 | -36.05966 | 146.98230 | 19205 ft | 376 kts | 58° |
| 2026-05-05 09:28 | -36.04458 | 147.00854 | 19185 ft | 377 kts | 56° |
| 2026-05-05 09:28 | -36.02919 | 147.03491 | 19184 ft | 378 kts | 56° |
| 2026-05-05 09:28 | -36.01394 | 147.06099 | 19191 ft | 378 kts | 56° |
| 2026-05-05 09:29 | -35.99860 | 147.08725 | 19194 ft | 378 kts | 56° |
| 2026-05-05 09:29 | -35.98314 | 147.11372 | 19195 ft | 378 kts | 56° |
| 2026-05-05 09:29 | -35.96776 | 147.14009 | 19195 ft | 378 kts | 56° |
| 2026-05-05 09:29 | -35.95237 | 147.16647 | 19193 ft | 379 kts | 56° |
| 2026-05-05 09:30 | -35.93677 | 147.19322 | 19194 ft | 379 kts | 56° |
| 2026-05-05 09:30 | -35.92152 | 147.21936 | 19191 ft | 379 kts | 56° |
| 2026-05-05 09:30 | -35.90609 | 147.24580 | 19191 ft | 379 kts | 56° |
| 2026-05-05 09:30 | -35.89055 | 147.27240 | 19188 ft | 378 kts | 56° |
| 2026-05-05 09:31 | -35.87517 | 147.29871 | 19186 ft | 376 kts | 56° |
| 2026-05-05 09:31 | -35.85988 | 147.32484 | 19189 ft | 376 kts | 56° |
| 2026-05-05 09:31 | -35.84443 | 147.35129 | 19196 ft | 380 kts | 56° |
| 2026-05-05 09:31 | -35.82894 | 147.37776 | 19199 ft | 382 kts | 56° |
| 2026-05-05 09:32 | -35.81336 | 147.40439 | 19197 ft | 384 kts | 56° |
| 2026-05-05 09:32 | -35.79775 | 147.43102 | 19189 ft | 383 kts | 56° |
| 2026-05-05 09:32 | -35.78228 | 147.45738 | 19187 ft | 382 kts | 56° |
| 2026-05-05 09:32 | -35.76671 | 147.48390 | 19191 ft | 382 kts | 56° |
| 2026-05-05 09:33 | -35.75107 | 147.51050 | 19195 ft | 382 kts | 56° |
| 2026-05-05 09:33 | -35.73552 | 147.53696 | 19193 ft | 382 kts | 56° |
| 2026-05-05 09:33 | -35.72003 | 147.56328 | 19193 ft | 382 kts | 56° |
| 2026-05-05 09:33 | -35.70423 | 147.59010 | 19192 ft | 383 kts | 56° |
| 2026-05-05 09:34 | -35.68865 | 147.61655 | 19191 ft | 383 kts | 56° |
| 2026-05-05 09:34 | -35.67309 | 147.64291 | 19191 ft | 383 kts | 56° |
| 2026-05-05 09:34 | -35.65749 | 147.66934 | 19193 ft | 383 kts | 55° |
| 2026-05-05 09:34 | -35.64192 | 147.69572 | 19192 ft | 383 kts | 55° |
| 2026-05-05 09:35 | -35.62616 | 147.72238 | 19192 ft | 383 kts | 55° |
| 2026-05-05 09:35 | -35.59475 | 147.77545 | 19191 ft | 383 kts | 54° |
| 2026-05-05 09:35 | -35.57921 | 147.80167 | 19193 ft | 383 kts | 54° |
| 2026-05-05 09:36 | -35.56350 | 147.82816 | 19190 ft | 383 kts | 54° |
| 2026-05-05 09:36 | -35.54769 | 147.85480 | 19191 ft | 382 kts | 54° |
| 2026-05-05 09:36 | -35.53207 | 147.88110 | 19194 ft | 382 kts | 54° |
| 2026-05-05 09:36 | -35.51644 | 147.90739 | 19195 ft | 383 kts | 54° |
| 2026-05-05 09:37 | -35.50078 | 147.93368 | 19196 ft | 383 kts | 54° |
| 2026-05-05 09:37 | -35.48486 | 147.96034 | 19194 ft | 384 kts | 54° |
| 2026-05-05 09:37 | -35.46912 | 147.98669 | 19191 ft | 384 kts | 54° |
| 2026-05-05 09:37 | -35.45350 | 148.01285 | 19189 ft | 383 kts | 54° |
| 2026-05-05 09:38 | -35.43770 | 148.03926 | 19193 ft | 384 kts | 54° |
| 2026-05-05 09:38 | -35.42194 | 148.06558 | 19192 ft | 384 kts | 54° |
| 2026-05-05 09:38 | -35.40595 | 148.09225 | 19191 ft | 384 kts | 54° |
| 2026-05-05 09:38 | -35.39017 | 148.11859 | 19189 ft | 383 kts | 54° |
| 2026-05-05 09:39 | -35.37427 | 148.14506 | 19190 ft | 383 kts | 54° |
| 2026-05-05 09:39 | -35.35864 | 148.17111 | 19190 ft | 384 kts | 53° |
| 2026-05-05 09:39 | -35.34284 | 148.19740 | 19192 ft | 384 kts | 53° |
| 2026-05-05 09:39 | -35.32698 | 148.22380 | 19190 ft | 384 kts | 53° |
| 2026-05-05 09:40 | -35.31118 | 148.25006 | 19187 ft | 384 kts | 53° |
| 2026-05-05 09:40 | -35.29528 | 148.27646 | 19187 ft | 385 kts | 53° |
| 2026-05-05 09:40 | -35.27927 | 148.30302 | 19188 ft | 385 kts | 53° |
| 2026-05-05 09:40 | -35.26339 | 148.32936 | 19189 ft | 385 kts | 53° |
| 2026-05-05 09:41 | -35.24745 | 148.35576 | 19183 ft | 385 kts | 53° |
| 2026-05-05 09:41 | -35.23151 | 148.38214 | 19183 ft | 385 kts | 53° |
| 2026-05-05 09:41 | -35.21579 | 148.40816 | 19180 ft | 385 kts | 53° |
| 2026-05-05 09:41 | -35.19981 | 148.43457 | 19178 ft | 386 kts | 53° |
| 2026-05-05 09:42 | -35.18386 | 148.46092 | 19181 ft | 386 kts | 53° |
| 2026-05-05 09:42 | -35.16789 | 148.48727 | 19177 ft | 386 kts | 53° |
| 2026-05-05 09:42 | -35.15179 | 148.51384 | 19176 ft | 386 kts | 53° |
| 2026-05-05 09:42 | -35.13589 | 148.54004 | 19177 ft | 386 kts | 53° |
| 2026-05-05 09:43 | -35.11973 | 148.56665 | 19177 ft | 386 kts | 53° |
| 2026-05-05 09:43 | -35.10373 | 148.59299 | 19170 ft | 386 kts | 53° |
| 2026-05-05 09:43 | -35.08774 | 148.61926 | 19169 ft | 386 kts | 53° |
| 2026-05-05 09:43 | -35.07173 | 148.64558 | 19173 ft | 386 kts | 52° |
| 2026-05-05 09:44 | -35.05571 | 148.67191 | 19171 ft | 385 kts | 52° |
| 2026-05-05 09:44 | -35.03988 | 148.69788 | 19175 ft | 385 kts | 52° |
| 2026-05-05 09:44 | -35.02366 | 148.72446 | 19169 ft | 385 kts | 51° |
| 2026-05-05 09:44 | -35.00771 | 148.75060 | 19167 ft | 386 kts | 51° |
| 2026-05-05 09:45 | -34.99168 | 148.77683 | 19169 ft | 384 kts | 51° |
| 2026-05-05 09:45 | -34.97569 | 148.80298 | 19167 ft | 385 kts | 51° |
| 2026-05-05 09:45 | -34.95970 | 148.82912 | 19169 ft | 386 kts | 51° |
| 2026-05-05 09:45 | -34.94344 | 148.85567 | 19164 ft | 386 kts | 52° |
| 2026-05-05 09:46 | -34.92730 | 148.88199 | 19170 ft | 387 kts | 52° |
| 2026-05-05 09:46 | -34.91119 | 148.90830 | 19163 ft | 387 kts | 52° |
| 2026-05-05 09:46 | -34.89514 | 148.93445 | 19168 ft | 387 kts | 52° |
| 2026-05-05 09:46 | -34.87898 | 148.96078 | 19167 ft | 385 kts | 52° |
| 2026-05-05 09:47 | -34.86308 | 148.98665 | 19169 ft | 385 kts | 51° |
| 2026-05-05 09:47 | -34.84694 | 149.01289 | 19166 ft | 384 kts | 51° |
| 2026-05-05 09:47 | -34.83100 | 149.03877 | 19162 ft | 384 kts | 51° |
| 2026-05-05 09:47 | -34.81502 | 149.06496 | 19163 ft | 385 kts | 52° |
| 2026-05-05 09:48 | -34.79921 | 149.09126 | 19165 ft | 384 kts | 52° |
| 2026-05-05 09:48 | -34.78327 | 149.11778 | 19167 ft | 384 kts | 52° |
| 2026-05-05 09:48 | -34.76758 | 149.14386 | 19162 ft | 384 kts | 52° |
| 2026-05-05 09:48 | -34.75179 | 149.17009 | 19168 ft | 384 kts | 52° |
| 2026-05-05 09:49 | -34.73605 | 149.19620 | 19170 ft | 384 kts | 52° |
| 2026-05-05 09:49 | -34.72027 | 149.22263 | 19164 ft | 385 kts | 52° |
| 2026-05-05 09:49 | -34.70443 | 149.24881 | 19170 ft | 386 kts | 52° |
| 2026-05-05 09:49 | -34.68850 | 149.27510 | 19173 ft | 386 kts | 52° |
| 2026-05-05 09:50 | -34.67250 | 149.30147 | 19174 ft | 386 kts | 52° |
| 2026-05-05 09:50 | -34.65662 | 149.32764 | 19176 ft | 386 kts | 52° |
| 2026-05-05 09:50 | -34.64068 | 149.35390 | 19178 ft | 385 kts | 52° |
| 2026-05-05 09:50 | -34.62473 | 149.38016 | 19180 ft | 385 kts | 52° |
| 2026-05-05 09:51 | -34.60899 | 149.40608 | 19192 ft | 385 kts | 52° |
| 2026-05-05 09:51 | -34.59285 | 149.43262 | 19196 ft | 386 kts | 52° |
| 2026-05-05 09:51 | -34.57694 | 149.45879 | 19203 ft | 387 kts | 52° |
| 2026-05-05 09:51 | -34.56103 | 149.48491 | 19205 ft | 387 kts | 52° |
| 2026-05-05 09:52 | -34.54493 | 149.51135 | 19202 ft | 388 kts | 52° |
| 2026-05-05 09:52 | -34.52890 | 149.53766 | 19204 ft | 388 kts | 52° |
| 2026-05-05 09:52 | -34.51287 | 149.56393 | 19205 ft | 388 kts | 52° |
| 2026-05-05 09:52 | -34.49675 | 149.59035 | 19206 ft | 388 kts | 52° |
| 2026-05-05 09:53 | -34.48071 | 149.61661 | 19209 ft | 388 kts | 52° |
| 2026-05-05 09:53 | -34.46464 | 149.64287 | 19212 ft | 388 kts | 52° |
| 2026-05-05 09:53 | -34.44868 | 149.66896 | 19206 ft | 387 kts | 52° |
| 2026-05-05 09:53 | -34.43265 | 149.69514 | 19200 ft | 386 kts | 52° |
| 2026-05-05 09:54 | -34.41670 | 149.72119 | 19201 ft | 385 kts | 52° |
| 2026-05-05 09:54 | -34.40080 | 149.74712 | 19194 ft | 385 kts | 52° |
| 2026-05-05 09:54 | -34.38479 | 149.77321 | 19191 ft | 386 kts | 52° |
| 2026-05-05 09:54 | -34.36877 | 149.79927 | 19193 ft | 382 kts | 51° |
| 2026-05-05 09:55 | -34.35297 | 149.82404 | 19187 ft | 360 kts | 50° |
| 2026-05-05 09:55 | -34.33779 | 149.84760 | 19019 ft | 350 kts | 50° |
| 2026-05-05 09:55 | -34.32303 | 149.87048 | 18741 ft | 349 kts | 50° |
| 2026-05-05 09:55 | -34.30805 | 149.89394 | 18413 ft | 350 kts | 50° |
| 2026-05-05 09:56 | -34.29331 | 149.91724 | 18073 ft | 350 kts | 51° |
| 2026-05-05 09:56 | -34.27871 | 149.94046 | 17740 ft | 349 kts | 51° |
| 2026-05-05 09:56 | -34.26391 | 149.96411 | 17397 ft | 349 kts | 51° |
| 2026-05-05 09:56 | -34.24936 | 149.98744 | 17055 ft | 348 kts | 51° |
| 2026-05-05 09:57 | -34.23486 | 150.01077 | 16715 ft | 348 kts | 52° |
| 2026-05-05 09:57 | -34.22034 | 150.03416 | 16361 ft | 348 kts | 52° |
| 2026-05-05 09:57 | -34.20596 | 150.05737 | 16041 ft | 347 kts | 52° |
| 2026-05-05 09:57 | -34.19151 | 150.08063 | 15700 ft | 345 kts | 52° |
| 2026-05-05 09:58 | -34.17780 | 150.10454 | 15333 ft | 344 kts | 59° |
| 2026-05-05 09:58 | -34.16935 | 150.13130 | 15037 ft | 341 kts | 75° |
| 2026-05-05 09:58 | -34.16360 | 150.15874 | 14702 ft | 340 kts | 76° |
| 2026-05-05 09:58 | -34.15785 | 150.18625 | 14376 ft | 340 kts | 76° |
| 2026-05-05 09:59 | -34.15204 | 150.21393 | 14047 ft | 339 kts | 76° |
| 2026-05-05 09:59 | -34.14620 | 150.24150 | 13705 ft | 339 kts | 76° |
| 2026-05-05 09:59 | -34.14036 | 150.26891 | 13376 ft | 337 kts | 76° |
| 2026-05-05 09:59 | -34.13448 | 150.29633 | 13041 ft | 336 kts | 76° |
| 2026-05-05 10:00 | -34.12864 | 150.32344 | 12719 ft | 334 kts | 75° |
| 2026-05-05 10:00 | -34.12335 | 150.34963 | 12383 ft | 307 kts | 78° |
| 2026-05-05 10:00 | -34.12217 | 150.35593 | 12306 ft | 300 kts | 78° |
| 2026-05-05 10:00 | -34.11868 | 150.37421 | 12079 ft | 281 kts | 78° |
| 2026-05-05 10:01 | -34.11411 | 150.39760 | 11856 ft | 306 kts | 77° |
| 2026-05-05 10:01 | -34.10887 | 150.42409 | 11535 ft | 342 kts | 77° |
| 2026-05-05 10:01 | -34.10322 | 150.45163 | 11175 ft | 336 kts | 77° |
| 2026-05-05 10:01 | -34.09750 | 150.47865 | 10841 ft | 329 kts | 76° |
| 2026-05-05 10:02 | -34.09184 | 150.50517 | 10520 ft | 324 kts | 76° |
| 2026-05-05 10:02 | -34.08618 | 150.53152 | 10206 ft | 319 kts | 76° |
| 2026-05-05 10:02 | -34.08076 | 150.55707 | 9901 ft | 316 kts | 76° |
| 2026-05-05 10:02 | -34.07533 | 150.58264 | 9593 ft | 312 kts | 76° |
| 2026-05-05 10:03 | -34.06994 | 150.60794 | 9297 ft | 310 kts | 76° |
| 2026-05-05 10:03 | -34.06462 | 150.63281 | 8995 ft | 308 kts | 76° |
| 2026-05-05 10:03 | -34.05933 | 150.65741 | 8685 ft | 291 kts | 75° |
| 2026-05-05 10:03 | -34.05437 | 150.68025 | 8416 ft | 275 kts | 75° |
| 2026-05-05 10:04 | -34.04965 | 150.70210 | 8154 ft | 266 kts | 75° |
| 2026-05-05 10:04 | -34.04502 | 150.72351 | 7895 ft | 259 kts | 75° |
| 2026-05-05 10:04 | -34.04053 | 150.74425 | 7643 ft | 252 kts | 74° |
| 2026-05-05 10:04 | -34.03618 | 150.76430 | 7403 ft | 252 kts | 75° |
| 2026-05-05 10:05 | -34.03170 | 150.78514 | 7156 ft | 262 kts | 74° |
| 2026-05-05 10:05 | -34.02687 | 150.80655 | 7039 ft | 264 kts | 73° |
| 2026-05-05 10:05 | -34.02188 | 150.82779 | 6928 ft | 266 kts | 73° |
| 2026-05-05 10:05 | -34.01683 | 150.84926 | 6816 ft | 267 kts | 73° |
| 2026-05-05 10:06 | -34.01176 | 150.87080 | 6702 ft | 268 kts | 73° |
| 2026-05-05 10:06 | -34.00666 | 150.89247 | 6580 ft | 269 kts | 73° |
| 2026-05-05 10:06 | -34.00154 | 150.91425 | 6448 ft | 270 kts | 73° |
| 2026-05-05 10:06 | -33.99639 | 150.93611 | 6229 ft | 273 kts | 73° |
| 2026-05-05 10:07 | -33.99115 | 150.95839 | 6063 ft | 273 kts | 73° |
| 2026-05-05 10:07 | -33.98605 | 150.98004 | 6002 ft | 269 kts | 73° |
| 2026-05-05 10:07 | -33.98130 | 151.00180 | 5981 ft | 264 kts | 75° |
| 2026-05-05 10:07 | -33.97351 | 151.02139 | 5980 ft | 258 kts | 50° |
| 2026-05-05 10:08 | -33.95960 | 151.03458 | 5778 ft | 260 kts | 25° |
| 2026-05-05 10:08 | -33.94166 | 151.03919 | 5484 ft | 264 kts | 359° |
| 2026-05-05 10:08 | -33.92352 | 151.03748 | 5155 ft | 258 kts | 353° |
| 2026-05-05 10:08 | -33.90593 | 151.03526 | 4846 ft | 255 kts | 353° |
| 2026-05-05 10:09 | -33.88832 | 151.03299 | 4532 ft | 252 kts | 353° |
| 2026-05-05 10:09 | -33.87083 | 151.03064 | 4203 ft | 250 kts | 353° |
| 2026-05-05 10:09 | -33.85363 | 151.02829 | 3877 ft | 249 kts | 353° |
| 2026-05-05 10:09 | -33.83647 | 151.02591 | 3551 ft | 248 kts | 353° |
| 2026-05-05 10:10 | -33.81911 | 151.02336 | 3225 ft | 248 kts | 353° |
| 2026-05-05 10:10 | -33.80197 | 151.02072 | 2897 ft | 247 kts | 353° |
| 2026-05-05 10:10 | -33.78486 | 151.01788 | 2609 ft | 244 kts | 352° |
| 2026-05-05 10:10 | -33.76919 | 151.01489 | 2847 ft | 222 kts | 352° |
| 2026-05-05 10:11 | -33.75452 | 151.01205 | 2927 ft | 209 kts | 352° |
| 2026-05-05 10:11 | -33.74035 | 151.00935 | 2964 ft | 200 kts | 354° |
| 2026-05-05 10:11 | -33.72712 | 151.01146 | 2966 ft | 186 kts | 30° |
| 2026-05-05 10:11 | -33.71866 | 151.02197 | 2966 ft | 170 kts | 71° |
| 2026-05-05 10:12 | -33.71622 | 151.03526 | 2970 ft | 160 kts | 83° |
| 2026-05-05 10:12 | -33.71430 | 151.04835 | 2973 ft | 156 kts | 83° |
| 2026-05-05 10:12 | -33.71234 | 151.06262 | 3013 ft | 195 kts | 83° |
| 2026-05-05 10:12 | -33.71077 | 151.07989 | 2996 ft | 213 kts | 95° |
| 2026-05-05 10:13 | -33.71586 | 151.09641 | 2989 ft | 210 kts | 128° |
| 2026-05-05 10:13 | -33.72648 | 151.10777 | 2999 ft | 203 kts | 143° |
| 2026-05-05 10:13 | -33.73786 | 151.11723 | 3122 ft | 187 kts | 152° |
| 2026-05-05 10:13 | -33.74937 | 151.12300 | 3005 ft | 174 kts | 162° |
| 2026-05-05 10:14 | -33.76083 | 151.12663 | 2823 ft | 165 kts | 165° |
| 2026-05-05 10:14 | -33.77139 | 151.12990 | 2779 ft | 148 kts | 167° |
| 2026-05-05 10:14 | -33.78092 | 151.13266 | 2691 ft | 130 kts | 163° |
| 2026-05-05 10:14 | -33.78965 | 151.13503 | 2813 ft | 146 kts | 168° |
| 2026-05-05 10:15 | -33.80012 | 151.13773 | 2819 ft | 153 kts | 167° |
| 2026-05-05 10:15 | -33.81062 | 151.14076 | 2727 ft | 155 kts | 168° |
| 2026-05-05 10:15 | -33.82126 | 151.14313 | 2551 ft | 155 kts | 167° |
| 2026-05-05 10:15 | -33.83107 | 151.14590 | 2689 ft | 130 kts | 166° |
| 2026-05-05 10:16 | -33.83990 | 151.14850 | 2445 ft | 138 kts | 167° |
| 2026-05-05 10:16 | -33.84977 | 151.15091 | 2326 ft | 149 kts | 170° |
| 2026-05-05 10:16 | -33.85973 | 151.15332 | 2128 ft | 139 kts | 166° |
| 2026-05-05 10:16 | -33.86892 | 151.15558 | 1847 ft | 127 kts | 166° |
| 2026-05-05 10:17 | -33.87714 | 151.15794 | 1556 ft | 120 kts | 166° |
| 2026-05-05 10:17 | -33.88556 | 151.16011 | 1240 ft | 126 kts | 166° |
| 2026-05-05 10:17 | -33.89407 | 151.16229 | 944 ft | 125 kts | 166° |
| 2026-05-05 10:17 | -33.90253 | 151.16454 | 640 ft | 125 kts | 167° |
| 2026-05-05 10:18 | -33.91099 | 151.16675 | 419 ft | 121 kts | 168° |
| 2026-05-05 10:18 | -33.91941 | 151.16893 | 242 ft | 125 kts | 168° |
| 2026-05-05 10:18 | -33.92770 | 151.17114 | 91 ft | 119 kts | 169° |
| 2026-05-05 10:18 | -33.93518 | 151.17310 | 27 ft | 90 kts | 169° |
| 2026-05-05 10:19 | -33.93946 | 151.17419 | 27 ft | 54 kts | 167° |
| 2026-05-05 10:19 | -33.94289 | 151.17531 | 27 ft | 46 kts | 159° |
| 2026-05-05 10:19 | -33.94501 | 151.17697 | 27 ft | 15 kts | 141° |
| 2026-05-05 10:19 | -33.94514 | 151.17764 | 27 ft | 0 kts | 45° |
| 2026-05-05 10:20 | -33.94511 | 151.17767 | 27 ft | 0 kts | 46° |
| 2026-05-05 10:20 | -33.94493 | 151.17778 | 27 ft | 12 kts | 13° |
| 2026-05-05 10:20 | -33.94374 | 151.17749 | 27 ft | 22 kts | 346° |
| 2026-05-05 10:21 | -33.94271 | 151.17719 | 26 ft | 14 kts | 346° |
| 2026-05-05 10:21 | -33.94125 | 151.17674 | 27 ft | 29 kts | 346° |
| 2026-05-05 10:21 | -33.93932 | 151.17619 | 27 ft | 19 kts | 347° |
| 2026-05-05 10:21 | -33.93795 | 151.17584 | 27 ft | 29 kts | 348° |
| 2026-05-05 10:22 | -33.93605 | 151.17535 | 27 ft | 25 kts | 348° |
| 2026-05-05 10:22 | -33.93445 | 151.17500 | 27 ft | 25 kts | 7° |
| 2026-05-05 10:22 | -33.93234 | 151.17465 | 25 ft | 39 kts | 348° |
| 2026-05-05 10:22 | -33.93079 | 151.17465 | 25 ft | 22 kts | 70° |
| 2026-05-05 10:23 | -33.93010 | 151.17630 | 24 ft | 32 kts | 101° |
| 2026-05-05 10:23 | -33.93081 | 151.17926 | 25 ft | 31 kts | 101° |
| 2026-05-05 10:23 | -33.93097 | 151.18140 | 26 ft | 21 kts | 65° |
| 2026-05-05 10:23 | -33.93079 | 151.18231 | 26 ft | 2 kts | 127° |
| 2026-05-05 10:24 | -33.93081 | 151.18234 | 26 ft | 0 kts | 131° |